Time;durP1;ratioP1;P1;durP2;ratioP2;P2;SDS_P1;SDS_P2;PMS_P1;PMS_P2;Temp;Humidity;BMP_temperature;BMP_pressure;BME280_temperature;BME280_humidity;BME280_pressure;Samples;Min_cycle;Max_cycle;Signal;HPM_P1;HPM_P2
2024/02/18 00:01:34;;;;;;;2.35;1.58;;;12.80;85.90;;;;;;5020443;28;20068;-66
2024/02/18 00:04:00;;;;;;;3.35;1.58;;;12.70;86.00;;;;;;5038989;28;20102;-66
2024/02/18 00:06:27;;;;;;;1.92;1.33;;;12.70;86.00;;;;;;5041060;28;20182;-66
2024/02/18 00:08:53;;;;;;;1.95;1.63;;;12.70;85.90;;;;;;5038138;28;20029;-66
2024/02/18 00:11:19;;;;;;;2.80;1.63;;;12.60;85.90;;;;;;5031291;28;20041;-66
2024/02/18 00:13:45;;;;;;;3.08;1.90;;;12.50;86.00;;;;;;5022383;28;20713;-67
2024/02/18 00:16:11;;;;;;;2.97;1.92;;;12.50;86.10;;;;;;5008635;28;20492;-66
2024/02/18 00:18:37;;;;;;;2.17;1.50;;;12.50;86.10;;;;;;5022610;28;20539;-66
2024/02/18 00:21:04;;;;;;;2.47;1.67;;;12.40;86.10;;;;;;5018154;28;20025;-66
2024/02/18 00:23:30;;;;;;;2.95;1.67;;;12.40;86.20;;;;;;5021747;28;20071;-69
2024/02/18 00:25:57;;;;;;;2.60;1.88;;;12.40;86.20;;;;;;5028064;28;20559;-66
2024/02/18 00:28:23;;;;;;;6.63;2.40;;;12.50;86.20;;;;;;5022589;28;20072;-66
2024/02/18 00:30:50;;;;;;;4.82;1.42;;;12.50;86.10;;;;;;5037574;28;20033;-66
2024/02/18 00:33:18;;;;;;;1.38;1.27;;;12.50;86.10;;;;;;5032015;28;20917;-66
2024/02/18 00:35:44;;;;;;;3.28;1.77;;;12.50;86.10;;;;;;5040286;28;20108;-67
2024/02/18 00:38:10;;;;;;;1.42;1.20;;;12.50;86.00;;;;;;5024947;28;20088;-66
2024/02/18 00:40:36;;;;;;;1.30;1.20;;;12.50;86.00;;;;;;5029434;28;20034;-66
2024/02/18 00:43:03;;;;;;;1.58;1.48;;;12.50;85.90;;;;;;5028983;28;20021;-67
2024/02/18 00:45:29;;;;;;;2.95;1.20;;;12.60;86.00;;;;;;5030367;28;20017;-66
2024/02/18 00:47:55;;;;;;;2.40;1.75;;;12.50;85.80;;;;;;5029985;28;20106;-66
2024/02/18 00:50:21;;;;;;;1.45;1.27;;;12.60;85.90;;;;;;5028688;28;20026;-66
2024/02/18 00:52:46;;;;;;;4.60;1.38;;;12.60;85.80;;;;;;5021347;28;20055;-66
2024/02/18 00:55:12;;;;;;;2.55;0.82;;;12.60;86.40;;;;;;5026017;28;20026;-66
2024/02/18 00:57:38;;;;;;;1.00;0.82;;;12.60;85.70;;;;;;5029208;28;20048;-66
2024/02/18 01:00:06;;;;;;;2.88;1.33;;;12.60;85.80;;;;;;5039128;28;20021;-66
2024/02/18 01:02:31;;;;;;;3.00;1.35;;;12.60;85.70;;;;;;5027170;28;20388;-66
2024/02/18 01:04:57;;;;;;;4.07;1.23;;;12.50;85.60;;;;;;5031903;28;20028;-66
2024/02/18 01:07:23;;;;;;;1.42;1.20;;;12.50;85.60;;;;;;5030530;28;20116;-66
2024/02/18 01:09:50;;;;;;;2.03;1.02;;;12.50;85.60;;;;;;5013459;28;20034;-66
2024/02/18 01:12:17;;;;;;;1.80;1.25;;;12.50;85.50;;;;;;5029591;28;20034;-66
2024/02/18 01:14:43;;;;;;;1.45;1.20;;;12.60;85.60;;;;;;5029952;28;20025;-66
2024/02/18 01:17:09;;;;;;;8.48;0.93;;;12.50;85.30;;;;;;5062025;28;20092;-66
2024/02/18 01:19:39;;;;;;;1.95;0.98;;;12.60;85.40;;;;;;5029751;28;20366;-66
2024/02/18 01:22:05;;;;;;;1.33;0.95;;;12.60;85.30;;;;;;5029474;28;20526;-67
2024/02/18 01:24:31;;;;;;;1.27;0.68;;;12.60;85.30;;;;;;5028661;28;20433;-66
2024/02/18 01:26:57;;;;;;;1.75;1.20;;;12.60;85.20;;;;;;5025834;28;20030;-66
2024/02/18 01:29:23;;;;;;;3.63;0.80;;;12.60;85.00;;;;;;5026910;28;20104;-66
2024/02/18 01:31:49;;;;;;;2.40;1.33;;;12.60;84.90;;;;;;5030656;28;20105;-66
2024/02/18 01:34:17;;;;;;;2.03;1.52;;;12.60;84.70;;;;;;5026871;28;20041;-66
2024/02/18 01:36:43;;;;;;;0.88;0.75;;;12.60;84.60;;;;;;5031047;28;20087;-69
2024/02/18 01:39:09;;;;;;;1.73;0.90;;;12.60;84.60;;;;;;5027762;28;20050;-69
2024/02/18 01:41:35;;;;;;;1.75;1.10;;;12.60;84.60;;;;;;5032127;28;20065;-69
2024/02/18 01:44:01;;;;;;;4.15;1.58;;;12.60;84.50;;;;;;5010960;28;20029;-69
2024/02/18 01:46:28;;;;;;;2.05;0.75;;;12.60;84.50;;;;;;5031090;28;20030;-69
2024/02/18 01:48:54;;;;;;;1.88;1.30;;;12.60;84.50;;;;;;5030356;28;20052;-66
2024/02/18 01:51:22;;;;;;;1.77;1.33;;;12.60;84.30;;;;;;5028437;28;20029;-66
2024/02/18 01:53:50;;;;;;;8.32;1.80;;;12.70;84.20;;;;;;5028197;28;20044;-67
2024/02/18 01:56:18;;;;;;;3.33;1.75;;;12.70;84.00;;;;;;5026981;28;20034;-66
2024/02/18 01:58:45;;;;;;;1.75;0.95;;;12.60;83.70;;;;;;5027874;28;20057;-67
2024/02/18 02:01:11;;;;;;;2.00;1.00;;;12.60;83.80;;;;;;5031187;28;20072;-66
2024/02/18 02:03:38;;;;;;;1.77;0.93;;;12.70;83.90;;;;;;5031030;28;20152;-66
2024/02/18 02:06:06;;;;;;;3.33;1.63;;;12.70;83.80;;;;;;5029815;28;20029;-65
2024/02/18 02:08:33;;;;;;;3.78;1.30;;;12.70;83.70;;;;;;5060065;28;20032;-65
2024/02/18 02:11:00;;;;;;;3.00;1.50;;;12.60;83.60;;;;;;5022085;28;20065;-65
2024/02/18 02:13:26;;;;;;;3.75;1.50;;;12.70;83.50;;;;;;5025049;28;20542;-65
2024/02/18 02:15:52;;;;;;;2.22;1.45;;;12.70;83.30;;;;;;5029730;28;20396;-64
2024/02/18 02:18:19;;;;;;;2.22;1.45;;;12.70;83.00;;;;;;5030428;28;20029;-65
2024/02/18 02:20:45;;;;;;;3.78;1.55;;;12.70;83.10;;;;;;5030254;28;20032;-65
2024/02/18 02:23:11;;;;;;;2.78;1.40;;;12.70;82.90;;;;;;5025690;28;20523;-64
2024/02/18 02:25:38;;;;;;;2.85;1.50;;;12.70;82.90;;;;;;5028738;28;20028;-64
2024/02/18 02:28:16;;;;;;;3.40;1.27;;;12.70;82.80;;;;;;5058427;28;20029;-65
2024/02/18 02:30:42;;;;;;;5.05;1.10;;;12.70;82.70;;;;;;5028419;28;20061;-65
2024/02/18 02:33:08;;;;;;;4.30;1.55;;;12.70;82.40;;;;;;5026398;28;20128;-65
2024/02/18 02:35:34;;;;;;;4.40;1.33;;;12.70;82.50;;;;;;5024059;28;20029;-65
2024/02/18 02:38:00;;;;;;;3.25;1.65;;;12.70;82.40;;;;;;5030165;28;20037;-65
2024/02/18 02:40:26;;;;;;;1.88;0.80;;;12.70;82.30;;;;;;5020970;28;20104;-65
2024/02/18 02:42:53;;;;;;;2.17;1.70;;;12.70;82.40;;;;;;5028733;28;20083;-65
2024/02/18 02:45:18;;;;;;;1.40;1.10;;;12.80;82.30;;;;;;5022212;28;20079;-65
2024/02/18 02:47:44;;;;;;;1.83;1.27;;;12.80;82.30;;;;;;5032521;28;20033;-64
2024/02/18 02:50:10;;;;;;;1.52;1.05;;;12.70;82.20;;;;;;5028871;28;20056;-65
2024/02/18 02:52:40;;;;;;;4.15;1.50;;;12.80;82.30;;;;;;5027458;28;20298;-65
2024/02/18 02:55:07;;;;;;;4.70;1.45;;;12.70;82.10;;;;;;5026771;28;20036;-65
2024/02/18 02:57:33;;;;;;;3.03;1.30;;;12.70;82.20;;;;;;5030785;28;20037;-68
2024/02/18 02:59:59;;;;;;;2.13;1.40;;;12.70;82.30;;;;;;5030201;28;20033;-68
2024/02/18 03:02:25;;;;;;;4.50;1.52;;;12.70;82.20;;;;;;5028201;28;20025;-65
2024/02/18 03:04:51;;;;;;;5.55;1.38;;;12.80;82.20;;;;;;5031671;28;20055;-65
2024/02/18 03:07:17;;;;;;;1.92;1.00;;;12.80;82.20;;;;;;5031723;28;20481;-64
2024/02/18 03:09:43;;;;;;;8.95;2.50;;;12.70;82.10;;;;;;5028036;28;20432;-65
2024/02/18 03:12:09;;;;;;;2.47;1.00;;;12.80;82.10;;;;;;5025399;28;20044;-65
2024/02/18 03:14:35;;;;;;;2.55;1.30;;;12.80;82.00;;;;;;5026218;28;20069;-65
2024/02/18 03:17:01;;;;;;;1.77;1.20;;;12.80;82.00;;;;;;5025297;28;20041;-65
2024/02/18 03:19:27;;;;;;;4.35;1.67;;;12.70;82.00;;;;;;5028117;28;20481;-65
2024/02/18 03:21:53;;;;;;;2.92;1.00;;;12.80;82.00;;;;;;5028438;28;20017;-65
2024/02/18 03:24:19;;;;;;;1.27;0.75;;;12.80;82.10;;;;;;5032875;28;20037;-65
2024/02/18 03:26:45;;;;;;;1.65;1.10;;;12.80;82.00;;;;;;5038014;28;20013;-65
2024/02/18 03:29:11;;;;;;;6.35;1.70;;;12.80;81.80;;;;;;5033676;28;20041;-65
2024/02/18 03:31:37;;;;;;;1.65;1.23;;;12.70;81.90;;;;;;5028610;28;20038;-65
2024/02/18 03:34:03;;;;;;;1.25;1.05;;;12.80;81.90;;;;;;5024961;28;20056;-65
2024/02/18 03:36:30;;;;;;;3.80;1.38;;;12.80;81.90;;;;;;5023163;28;20400;-68
2024/02/18 03:38:56;;;;;;;1.90;1.10;;;12.70;82.00;;;;;;5032256;28;20107;-68
2024/02/18 03:41:22;;;;;;;3.67;1.33;;;12.70;82.00;;;;;;5029529;28;20026;-68
2024/02/18 03:43:48;;;;;;;2.85;1.10;;;12.70;82.10;;;;;;5032455;28;20030;-68
2024/02/18 03:46:14;;;;;;;1.67;0.90;;;12.70;82.00;;;;;;5028271;28;20052;-68
2024/02/18 03:48:41;;;;;;;2.95;0.93;;;12.70;82.00;;;;;;5030807;28;20072;-68
2024/02/18 03:51:07;;;;;;;4.43;1.00;;;12.70;82.00;;;;;;5031759;28;20025;-68
2024/02/18 03:53:33;;;;;;;3.30;0.90;;;12.70;82.00;;;;;;5031521;28;20111;-68
2024/02/18 03:55:59;;;;;;;1.50;1.30;;;12.70;82.00;;;;;;5030941;28;20030;-68
2024/02/18 03:58:25;;;;;;;6.55;1.58;;;12.70;82.00;;;;;;5024431;28;20030;-68
2024/02/18 04:00:52;;;;;;;1.23;1.00;;;12.70;81.90;;;;;;5031418;28;20358;-69
2024/02/18 04:03:17;;;;;;;3.63;1.20;;;12.70;81.90;;;;;;5033558;28;20030;-69
2024/02/18 04:05:43;;;;;;;1.75;1.65;;;12.70;81.60;;;;;;5039888;28;20071;-69
2024/02/18 04:08:09;;;;;;;1.30;1.20;;;12.60;81.60;;;;;;5035061;28;20040;-69
2024/02/18 04:10:36;;;;;;;3.08;1.50;;;12.60;81.60;;;;;;5033492;28;20405;-69
2024/02/18 04:13:01;;;;;;;0.93;0.80;;;12.60;81.50;;;;;;5032611;28;20026;-68
2024/02/18 04:15:27;;;;;;;1.60;1.30;;;12.60;81.70;;;;;;5035518;28;20094;-68
2024/02/18 04:17:54;;;;;;;5.22;0.80;;;12.70;81.70;;;;;;5037688;28;20439;-68
2024/02/18 04:20:20;;;;;;;1.27;1.00;;;12.70;81.70;;;;;;5033190;28;20083;-65
2024/02/18 04:22:47;;;;;;;1.52;1.27;;;12.70;81.70;;;;;;5037420;28;20038;-65
2024/02/18 04:25:14;;;;;;;1.67;1.30;;;12.70;81.50;;;;;;5036247;28;20473;-64
2024/02/18 04:27:40;;;;;;;3.85;1.10;;;12.70;81.50;;;;;;5033094;28;20505;-68
2024/02/18 04:30:06;;;;;;;1.73;0.90;;;12.70;81.40;;;;;;5045250;28;20048;-68
2024/02/18 04:32:32;;;;;;;2.15;1.15;;;12.60;81.40;;;;;;5047369;28;20029;-68
2024/02/18 04:34:58;;;;;;;1.95;1.20;;;12.60;81.40;;;;;;5034615;28;20447;-68
2024/02/18 04:37:24;;;;;;;2.75;1.10;;;12.60;81.30;;;;;;5030873;28;20022;-68
2024/02/18 04:39:50;;;;;;;2.00;1.00;;;12.60;81.30;;;;;;5029358;28;20092;-68
2024/02/18 04:42:16;;;;;;;3.22;1.35;;;12.60;81.30;;;;;;5033657;28;20026;-68
2024/02/18 04:44:42;;;;;;;2.72;1.30;;;12.60;81.30;;;;;;5036061;28;20443;-68
2024/02/18 04:47:08;;;;;;;5.38;1.55;;;12.60;81.40;;;;;;5032187;28;20030;-65
2024/02/18 04:49:34;;;;;;;1.98;1.33;;;12.60;81.40;;;;;;5027247;28;20389;-65
2024/02/18 04:52:01;;;;;;;5.47;1.27;;;12.50;81.50;;;;;;5025458;28;20045;-65
2024/02/18 04:54:27;;;;;;;3.40;2.05;;;12.50;81.60;;;;;;5018062;28;20063;-68
2024/02/18 04:56:53;;;;;;;1.83;1.00;;;12.50;81.80;;;;;;5021792;28;20652;-68
2024/02/18 04:59:20;;;;;;;4.32;1.15;;;12.50;82.00;;;;;;5012740;28;20064;-65
2024/02/18 05:01:49;;;;;;;2.97;1.52;;;12.40;82.00;;;;;;5035096;28;20033;-65
2024/02/18 05:04:15;;;;;;;3.33;1.33;;;12.40;82.10;;;;;;5034074;28;20087;-64
2024/02/18 05:06:50;;;;;;;5.22;1.60;;;12.40;82.30;;;;;;5036733;28;20030;-64
2024/02/18 05:09:16;;;;;;;5.38;1.95;;;12.30;82.50;;;;;;5032986;28;20036;-64
2024/02/18 05:11:42;;;;;;;2.95;1.90;;;12.30;82.80;;;;;;5035286;28;20392;-64
2024/02/18 05:14:08;;;;;;;2.00;1.00;;;12.20;82.80;;;;;;5028648;28;20045;-65
2024/02/18 05:16:34;;;;;;;1.40;0.90;;;12.20;83.00;;;;;;5029102;28;20424;-64
2024/02/18 05:19:00;;;;;;;1.63;0.93;;;12.20;83.20;;;;;;5032665;28;20025;-64
2024/02/18 05:21:25;;;;;;;0.95;0.80;;;12.20;83.20;;;;;;5035390;28;20036;-64
2024/02/18 05:23:51;;;;;;;2.97;1.25;;;12.20;83.20;;;;;;5032748;28;20021;-64
2024/02/18 05:26:18;;;;;;;1.92;1.25;;;12.10;83.30;;;;;;5033502;28;20478;-65
2024/02/18 05:28:47;;;;;;;1.90;1.02;;;12.10;83.50;;;;;;5025822;28;20110;-65
2024/02/18 05:31:25;;;;;;;2.03;1.40;;;12.10;83.50;;;;;;5051620;28;20029;-64
2024/02/18 05:33:52;;;;;;;3.03;1.42;;;12.10;83.50;;;;;;5026783;28;20067;-64
2024/02/18 05:36:20;;;;;;;6.55;1.42;;;12.10;83.60;;;;;;5032655;28;20029;-65
2024/02/18 05:38:46;;;;;;;4.78;1.35;;;12.00;83.80;;;;;;5025125;28;20054;-64
2024/02/18 05:41:12;;;;;;;1.50;1.05;;;12.10;83.80;;;;;;5026054;28;20037;-64
2024/02/18 05:43:38;;;;;;;1.95;1.27;;;12.00;83.90;;;;;;5028991;28;20485;-64
2024/02/18 05:46:08;;;;;;;1.25;0.85;;;12.00;84.00;;;;;;5031876;28;20068;-64
2024/02/18 05:48:34;;;;;;;3.42;1.30;;;12.00;84.10;;;;;;5034473;28;20029;-64
2024/02/18 05:51:00;;;;;;;1.15;0.88;;;12.00;84.10;;;;;;5030306;28;20030;-67
2024/02/18 05:53:26;;;;;;;1.95;0.70;;;12.00;84.20;;;;;;5029847;28;20037;-67
2024/02/18 05:55:53;;;;;;;2.10;1.25;;;12.00;84.30;;;;;;5029954;28;20040;-68
2024/02/18 05:58:20;;;;;;;1.55;0.88;;;11.90;84.40;;;;;;5021498;28;20148;-67
2024/02/18 06:00:45;;;;;;;2.92;1.10;;;11.90;84.60;;;;;;5032254;28;20698;-68
2024/02/18 06:03:11;;;;;;;1.40;1.23;;;11.90;84.70;;;;;;5025688;28;20022;-68
2024/02/18 06:05:37;;;;;;;3.40;1.92;;;11.90;84.80;;;;;;5030716;28;20111;-68
2024/02/18 06:08:03;;;;;;;2.35;1.10;;;11.80;84.80;;;;;;5029288;28;20033;-68
2024/02/18 06:10:29;;;;;;;8.90;1.55;;;11.80;85.40;;;;;;5029759;28;20491;-68
2024/02/18 06:12:56;;;;;;;1.80;1.20;;;11.90;84.80;;;;;;5030761;28;20013;-68
2024/02/18 06:15:22;;;;;;;3.45;1.92;;;11.90;84.90;;;;;;5028249;28;20021;-68
2024/02/18 06:17:47;;;;;;;2.88;1.35;;;11.80;85.00;;;;;;5030079;28;20093;-68
2024/02/18 06:20:13;;;;;;;2.75;1.65;;;11.80;85.10;;;;;;5032130;28;20026;-68
2024/02/18 06:22:39;;;;;;;2.30;0.88;;;11.80;85.20;;;;;;5030235;28;20025;-68
2024/02/18 06:25:06;;;;;;;10.73;2.00;;;11.70;85.20;;;;;;5031790;28;20021;-68
2024/02/18 06:27:32;;;;;;;4.05;1.85;;;11.80;85.20;;;;;;5029878;28;20029;-68
2024/02/18 06:29:58;;;;;;;1.42;1.00;;;11.80;85.30;;;;;;5029129;28;20028;-68
2024/02/18 06:32:25;;;;;;;1.80;1.35;;;11.80;85.30;;;;;;5034641;28;20026;-68
2024/02/18 06:34:50;;;;;;;1.75;1.48;;;11.70;85.40;;;;;;5025351;28;20388;-68
2024/02/18 06:37:16;;;;;;;3.03;1.25;;;11.70;85.40;;;;;;5029240;28;20044;-68
2024/02/18 06:39:42;;;;;;;3.22;1.35;;;11.70;85.50;;;;;;5025182;28;20045;-68
2024/02/18 06:42:08;;;;;;;1.55;1.40;;;11.70;85.40;;;;;;5027960;28;20037;-65
2024/02/18 06:44:33;;;;;;;1.50;1.35;;;11.70;85.30;;;;;;5025600;28;20401;-64
2024/02/18 06:46:59;;;;;;;3.38;1.58;;;11.70;85.40;;;;;;5030406;28;20117;-64
2024/02/18 06:49:25;;;;;;;3.25;1.13;;;11.70;85.50;;;;;;5028842;28;20049;-64
2024/02/18 06:51:50;;;;;;;3.75;1.83;;;11.70;85.60;;;;;;5019439;28;20041;-64
2024/02/18 06:54:16;;;;;;;2.95;1.23;;;11.60;85.70;;;;;;5024276;28;20091;-64
2024/02/18 06:56:42;;;;;;;2.17;1.10;;;11.60;85.80;;;;;;5034341;28;20481;-64
2024/02/18 06:59:07;;;;;;;3.00;1.23;;;11.60;85.90;;;;;;5029567;28;20448;-64
2024/02/18 07:01:33;;;;;;;4.15;1.38;;;11.60;85.90;;;;;;5023675;28;20528;-63
2024/02/18 07:04:00;;;;;;;1.65;1.33;;;11.60;86.00;;;;;;5028752;28;20046;-63
2024/02/18 07:06:25;;;;;;;4.43;1.10;;;11.50;86.00;;;;;;5029536;28;20025;-64
2024/02/18 07:08:51;;;;;;;3.90;1.55;;;11.50;86.20;;;;;;5023372;28;20037;-64
2024/02/18 07:11:17;;;;;;;4.53;2.33;;;11.50;86.10;;;;;;5030970;28;20090;-63
2024/02/18 07:13:43;;;;;;;2.28;1.52;;;11.50;86.10;;;;;;5032191;28;20041;-64
2024/02/18 07:16:09;;;;;;;3.00;1.50;;;11.50;86.20;;;;;;5027628;28;20030;-63
2024/02/18 07:18:35;;;;;;;1.23;0.93;;;11.50;86.20;;;;;;5027897;28;20036;-63
2024/02/18 07:21:01;;;;;;;1.90;1.10;;;11.50;86.30;;;;;;5031112;28;20159;-64
2024/02/18 07:23:26;;;;;;;3.03;1.35;;;11.50;86.30;;;;;;5028237;28;20079;-63
2024/02/18 07:25:53;;;;;;;2.08;1.15;;;11.50;86.30;;;;;;5006414;28;20441;-63
2024/02/18 07:28:20;;;;;;;5.20;1.25;;;11.60;86.30;;;;;;5027841;28;20029;-63
2024/02/18 07:30:45;;;;;;;2.80;1.17;;;11.50;86.30;;;;;;5027468;28;20025;-63
2024/02/18 07:33:11;;;;;;;2.47;1.33;;;11.50;86.20;;;;;;5027053;28;20435;-64
2024/02/18 07:35:37;;;;;;;1.63;1.15;;;11.50;86.30;;;;;;5028631;28;20079;-64
2024/02/18 07:38:03;;;;;;;1.13;0.80;;;11.60;86.40;;;;;;5029000;28;20485;-64
2024/02/18 07:40:28;;;;;;;4.57;1.83;;;11.50;86.20;;;;;;5027142;28;20053;-68
2024/02/18 07:42:54;;;;;;;2.30;1.00;;;11.50;86.30;;;;;;5022494;28;20361;-68
2024/02/18 07:45:20;;;;;;;2.97;1.45;;;11.40;86.40;;;;;;5025213;28;20033;-68
2024/02/18 07:47:45;;;;;;;2.85;1.45;;;11.40;86.50;;;;;;5031374;28;20466;-68
2024/02/18 07:50:11;;;;;;;2.05;0.95;;;11.50;86.50;;;;;;5028366;28;20026;-68
2024/02/18 07:52:37;;;;;;;1.05;0.80;;;11.40;86.50;;;;;;5034086;28;20499;-67
2024/02/18 07:55:03;;;;;;;4.00;1.95;;;11.40;86.50;;;;;;5035174;28;20033;-68
2024/02/18 07:57:28;;;;;;;2.53;0.90;;;11.40;86.60;;;;;;5036877;28;20041;-68
2024/02/18 07:59:54;;;;;;;3.88;1.40;;;11.40;86.70;;;;;;5041602;28;20087;-68
2024/02/18 08:02:21;;;;;;;1.33;1.23;;;11.40;86.70;;;;;;5038753;28;20040;-64
2024/02/18 08:04:46;;;;;;;3.40;1.67;;;11.40;86.80;;;;;;5033837;28;20552;-65
2024/02/18 08:07:12;;;;;;;1.35;0.90;;;11.40;86.80;;;;;;5032150;28;20378;-64
2024/02/18 08:09:38;;;;;;;4.25;1.65;;;11.40;86.70;;;;;;5027327;28;20124;-66
2024/02/18 08:12:04;;;;;;;3.70;1.48;;;11.40;86.90;;;;;;5026462;28;20395;-64
2024/02/18 08:14:29;;;;;;;5.63;1.90;;;11.40;87.00;;;;;;5012531;28;20048;-68
2024/02/18 08:16:56;;;;;;;1.42;0.95;;;11.30;87.00;;;;;;5024754;28;20053;-67
2024/02/18 08:19:22;;;;;;;5.22;1.58;;;11.30;87.10;;;;;;5027007;28;20025;-67
2024/02/18 08:21:47;;;;;;;2.97;1.65;;;11.30;87.10;;;;;;5027494;28;20045;-68
2024/02/18 08:24:14;;;;;;;4.40;1.10;;;11.30;87.10;;;;;;5033791;28;20025;-68
2024/02/18 08:26:40;;;;;;;3.47;1.85;;;11.30;87.20;;;;;;5026423;28;20140;-67
2024/02/18 08:29:07;;;;;;;2.05;1.33;;;11.30;87.10;;;;;;5027819;28;20465;-71
2024/02/18 08:31:33;;;;;;;1.90;1.65;;;11.30;87.20;;;;;;5034251;28;20107;-67
2024/02/18 08:34:00;;;;;;;1.45;1.20;;;11.30;87.10;;;;;;5027049;28;20171;-72
2024/02/18 08:36:26;;;;;;;5.43;1.70;;;11.40;87.20;;;;;;5026463;28;20163;-73
2024/02/18 08:38:51;;;;;;;4.95;1.30;;;11.40;87.20;;;;;;5033692;28;20104;-72
2024/02/18 08:41:17;;;;;;;2.05;1.23;;;11.30;87.20;;;;;;5030692;28;20069;-72
2024/02/18 08:43:43;;;;;;;2.40;1.60;;;11.30;87.20;;;;;;5030744;28;20090;-63
2024/02/18 08:46:09;;;;;;;3.00;0.90;;;11.30;87.30;;;;;;5031314;28;20496;-65
2024/02/18 08:48:38;;;;;;;2.65;0.98;;;11.30;87.40;;;;;;5034022;28;20373;-63
2024/02/18 08:51:05;;;;;;;1.52;0.90;;;11.30;87.30;;;;;;5023864;28;20412;-64
2024/02/18 08:53:31;;;;;;;1.77;1.15;;;11.30;87.30;;;;;;5024979;28;20045;-64
2024/02/18 08:55:56;;;;;;;2.40;1.23;;;11.30;87.20;;;;;;5030962;28;20048;-65
2024/02/18 08:58:22;;;;;;;2.28;1.40;;;11.30;87.20;;;;;;5026409;28;20025;-64
2024/02/18 09:00:47;;;;;;;4.90;1.95;;;11.30;87.50;;;;;;5035651;28;20097;-65
2024/02/18 09:03:14;;;;;;;6.88;1.40;;;11.30;87.50;;;;;;5030431;28;20401;-64
2024/02/18 09:05:40;;;;;;;3.05;1.58;;;11.30;87.50;;;;;;5031430;28;20036;-65
2024/02/18 09:08:08;;;;;;;1.42;1.30;;;11.30;87.60;;;;;;5029216;28;20026;-65
2024/02/18 09:10:35;;;;;;;3.35;1.77;;;11.30;87.60;;;;;;5028675;28;20049;-64
2024/02/18 09:13:01;;;;;;;2.53;1.48;;;11.30;87.70;;;;;;5030182;28;20032;-67
2024/02/18 09:15:30;;;;;;;5.35;1.52;;;11.20;87.80;;;;;;5028067;28;20025;-65
2024/02/18 09:17:58;;;;;;;4.22;1.50;;;11.30;87.70;;;;;;5030009;28;20044;-64
2024/02/18 09:20:25;;;;;;;2.35;2.15;;;11.30;87.60;;;;;;5029690;28;20072;-67
2024/02/18 09:22:51;;;;;;;2.20;0.77;;;11.30;87.70;;;;;;5030840;28;20021;-66
2024/02/18 09:25:16;;;;;;;3.10;1.30;;;11.30;87.60;;;;;;5022297;28;20496;-65
2024/02/18 09:27:42;;;;;;;2.97;1.50;;;11.30;87.50;;;;;;5028822;28;20120;-65
2024/02/18 09:30:08;;;;;;;1.13;1.00;;;11.30;87.50;;;;;;5026355;28;20084;-65
2024/02/18 09:32:34;;;;;;;2.58;1.45;;;11.30;88.20;;;;;;5028185;28;20037;-64
2024/02/18 09:34:59;;;;;;;1.77;1.38;;;11.30;87.70;;;;;;5029266;28;20064;-64
2024/02/18 09:37:25;;;;;;;3.92;1.17;;;11.30;87.60;;;;;;5030488;28;20119;-63
2024/02/18 09:39:51;;;;;;;4.25;1.63;;;11.20;87.70;;;;;;5031043;28;20568;-64
2024/02/18 09:42:17;;;;;;;4.65;1.50;;;11.30;87.70;;;;;;5035622;28;20113;-67
2024/02/18 09:44:45;;;;;;;2.85;1.52;;;11.20;87.70;;;;;;5029828;28;20100;-68
2024/02/18 09:47:13;;;;;;;1.50;1.20;;;11.20;87.80;;;;;;5027223;28;20479;-70
2024/02/18 09:49:39;;;;;;;1.42;1.00;;;11.20;87.80;;;;;;5029192;28;20025;-68
2024/02/18 09:52:06;;;;;;;1.48;1.20;;;11.20;87.90;;;;;;5029866;28;20113;-69
2024/02/18 09:54:34;;;;;;;9.73;1.92;;;11.20;87.90;;;;;;5052895;28;20571;-67
2024/02/18 09:57:03;;;;;;;5.78;1.77;;;11.20;88.00;;;;;;5030312;28;20044;-68
2024/02/18 09:59:29;;;;;;;5.55;1.63;;;11.10;88.00;;;;;;5028618;28;20037;-69
2024/02/18 10:01:58;;;;;;;2.95;1.02;;;11.10;88.10;;;;;;5030270;28;20040;-71
2024/02/18 10:04:25;;;;;;;1.45;1.25;;;11.10;88.10;;;;;;5061664;28;20441;-68
2024/02/18 10:06:53;;;;;;;1.98;1.05;;;11.10;88.20;;;;;;5031387;28;20026;-68
2024/02/18 10:09:19;;;;;;;6.72;1.60;;;11.20;88.30;;;;;;5036639;28;20477;-70
2024/02/18 10:11:45;;;;;;;2.45;1.13;;;11.20;88.20;;;;;;5036229;28;20048;-68
2024/02/18 10:14:10;;;;;;;2.22;1.13;;;11.20;88.20;;;;;;5028587;28;20032;-68
2024/02/18 10:16:36;;;;;;;2.90;2.03;;;11.20;88.10;;;;;;5026685;28;20037;-68
2024/02/18 10:19:02;;;;;;;2.17;1.35;;;11.20;88.00;;;;;;5031525;28;20030;-65
2024/02/18 10:21:28;;;;;;;5.97;1.08;;;11.20;88.00;;;;;;5029331;28;20041;-64
2024/02/18 10:23:54;;;;;;;3.35;1.50;;;11.20;88.10;;;;;;5032888;28;20366;-63
2024/02/18 10:26:20;;;;;;;4.82;1.08;;;11.20;88.20;;;;;;5021644;28;20021;-64
2024/02/18 10:28:46;;;;;;;1.67;1.10;;;11.20;88.20;;;;;;5030860;28;20340;-64
2024/02/18 10:31:12;;;;;;;1.27;1.08;;;11.30;88.10;;;;;;5025119;28;20033;-64
2024/02/18 10:33:38;;;;;;;3.08;1.48;;;11.20;88.00;;;;;;5044392;28;20030;-64
2024/02/18 10:36:08;;;;;;;1.30;1.20;;;11.20;88.10;;;;;;5026215;28;20033;-64
2024/02/18 10:38:42;;;;;;;1.85;0.90;;;11.20;88.00;;;;;;5036089;28;20036;-64
2024/02/18 10:41:12;;;;;;;2.00;1.23;;;11.20;88.10;;;;;;5031690;28;20048;-64
2024/02/18 10:43:48;;;;;;;4.25;0.95;;;11.20;88.10;;;;;;5021712;28;20037;-63
2024/02/18 10:46:21;;;;;;;1.48;1.00;;;11.30;88.00;;;;;;5027704;28;20510;-64
2024/02/18 10:48:52;;;;;;;1.88;1.40;;;11.20;87.90;;;;;;5037165;28;20114;-67
2024/02/18 10:51:31;;;;;;;2.33;1.50;;;11.20;87.90;;;;;;5031491;28;20060;-68
2024/02/18 10:54:15;;;;;;;3.40;1.30;;;11.20;88.10;;;;;;5034927;28;20139;-68
2024/02/18 10:56:41;;;;;;;1.85;1.08;;;11.20;88.10;;;;;;5028326;28;20049;-68
2024/02/18 10:59:12;;;;;;;1.42;1.00;;;11.20;87.90;;;;;;5022148;28;20034;-68
2024/02/18 11:01:59;;;;;;;1.05;0.77;;;11.20;87.90;;;;;;5022055;28;20493;-68
2024/02/18 11:04:25;;;;;;;1.95;0.60;;;11.20;88.00;;;;;;5025668;28;20025;-65
2024/02/18 11:06:51;;;;;;;1.88;0.85;;;11.20;88.00;;;;;;5032449;28;20030;-64
2024/02/18 11:09:17;;;;;;;2.45;1.42;;;11.30;87.90;;;;;;5032175;28;20087;-65
2024/02/18 11:11:44;;;;;;;2.25;1.35;;;11.30;87.80;;;;;;5029743;28;20037;-64
2024/02/18 11:14:11;;;;;;;1.42;0.80;;;11.20;87.90;;;;;;5028025;28;20546;-65
2024/02/18 11:16:38;;;;;;;1.02;0.77;;;11.20;88.00;;;;;;5028982;28;20037;-64
2024/02/18 11:19:05;;;;;;;2.83;1.10;;;11.20;88.00;;;;;;5028934;28;20104;-65
2024/02/18 11:21:32;;;;;;;4.15;1.05;;;11.20;88.10;;;;;;5030435;28;20045;-65
2024/02/18 11:23:59;;;;;;;2.38;0.77;;;11.20;88.10;;;;;;5028668;28;20093;-65
2024/02/18 11:26:25;;;;;;;1.92;1.25;;;11.20;88.10;;;;;;5037674;28;20515;-65
2024/02/18 11:28:51;;;;;;;1.35;1.00;;;11.10;88.00;;;;;;5042930;28;20045;-64
2024/02/18 11:31:20;;;;;;;2.15;0.70;;;11.20;88.20;;;;;;5035461;28;20029;-65
2024/02/18 11:33:46;;;;;;;3.33;1.02;;;11.20;88.20;;;;;;5038771;28;20029;-63
2024/02/18 11:36:13;;;;;;;1.63;0.90;;;11.20;88.10;;;;;;5034931;28;20552;-64
2024/02/18 11:38:44;;;;;;;3.58;1.33;;;11.20;88.10;;;;;;5035360;28;20038;-65
2024/02/18 11:41:39;;;;;;;2.40;1.80;;;11.20;88.10;;;;;;5030614;28;20494;-64
2024/02/18 11:44:18;;;;;;;1.65;1.30;;;11.30;88.00;;;;;;5034123;28;20437;-65
2024/02/18 11:46:49;;;;;;;1.95;0.80;;;11.20;88.10;;;;;;5025635;28;20163;-64
2024/02/18 11:49:14;;;;;;;2.78;1.10;;;11.20;88.00;;;;;;5035370;28;20033;-64
2024/02/18 11:51:40;;;;;;;4.75;1.58;;;11.10;87.90;;;;;;5043295;28;20063;-65
2024/02/18 11:54:06;;;;;;;5.65;1.08;;;11.10;88.10;;;;;;5026157;28;20104;-65
2024/02/18 11:56:32;;;;;;;1.88;1.65;;;11.00;88.20;;;;;;5026759;28;20026;-65
2024/02/18 11:58:58;;;;;;;2.30;0.70;;;11.00;88.30;;;;;;5034551;28;20025;-64
2024/02/18 12:01:25;;;;;;;2.67;0.80;;;11.10;88.40;;;;;;5031503;28;20052;-65
2024/02/18 12:03:54;;;;;;;0.90;0.63;;;11.00;88.30;;;;;;5039326;28;20033;-65
2024/02/18 12:06:19;;;;;;;2.75;1.17;;;11.10;88.30;;;;;;5025742;28;20029;-63
2024/02/18 12:08:47;;;;;;;2.75;1.08;;;11.10;88.20;;;;;;5024259;28;20496;-63
2024/02/18 12:11:13;;;;;;;2.00;0.93;;;11.00;88.10;;;;;;5024015;28;20040;-63
2024/02/18 12:13:39;;;;;;;1.27;0.80;;;11.00;88.10;;;;;;5046586;28;20352;-64
2024/02/18 12:16:06;;;;;;;2.38;0.95;;;11.00;88.10;;;;;;5038600;28;20111;-64
2024/02/18 12:18:32;;;;;;;1.48;0.93;;;11.00;88.00;;;;;;5033314;28;20033;-64
2024/02/18 12:20:58;;;;;;;4.35;1.40;;;11.00;88.00;;;;;;5030276;28;20044;-64
2024/02/18 12:23:24;;;;;;;0.68;0.68;;;11.00;88.10;;;;;;5027161;28;20152;-63
2024/02/18 12:25:51;;;;;;;1.50;0.60;;;11.00;88.10;;;;;;5028316;28;20025;-63
2024/02/18 12:28:17;;;;;;;5.85;1.40;;;11.00;88.10;;;;;;5026913;28;20404;-63
2024/02/18 12:30:47;;;;;;;1.38;0.85;;;11.00;87.90;;;;;;5025046;28;20025;-63
2024/02/18 12:33:14;;;;;;;1.45;1.00;;;11.00;88.00;;;;;;5035194;28;20041;-63
2024/02/18 12:35:40;;;;;;;4.00;0.75;;;10.90;87.90;;;;;;5036008;28;20480;-63
2024/02/18 12:38:07;;;;;;;1.48;0.82;;;11.00;88.00;;;;;;5036671;28;20032;-63
2024/02/18 12:40:34;;;;;;;5.78;1.52;;;11.00;88.00;;;;;;5034961;28;20045;-63
2024/02/18 12:43:00;;;;;;;1.20;0.85;;;11.00;87.90;;;;;;5034786;28;20397;-63
2024/02/18 12:45:27;;;;;;;2.47;0.98;;;11.00;87.90;;;;;;5028858;28;20608;-64